Погода Хафунна 2 недели

Бари, Сомали

04 - 17 марта
  • 04марта
    Сегодня
    +24°
    +31°
    Облачно с прояснениями
    ВремяПогодаТемператураВлажностьДавлениеВетер, м/сВероятность осадков
    00:00Облачно с прояснениями+26°C89 %760 мм2.0 м/с17 %
    03:00Облачно с прояснениями+26°C90 %759 мм1.7 м/с17 %
    06:00Облачно с прояснениями+26°C89 %761 мм2.0 м/с13 %
    09:00Облачно с прояснениями+29°C74 %761 мм3.7 м/с11 %
    12:00Облачно с прояснениями+30°C65 %760 мм5.0 м/с2 %
    15:00Облачно с прояснениями+30°C69 %759 мм4.7 м/с2 %
    18:00Практически безоблачно+27°C77 %759 мм3.0 м/с1 %
    21:00Небольшая облачность+27°C80 %761 мм1.5 м/с2 %
  • 05марта
    Вторник
    +24°
    +31°
    Облачно с прояснениями
    ВремяПогодаТемператураВлажностьДавлениеВетер, м/сВероятность осадков
    00:00Практически безоблачно+26°C87 %760 мм2.3 м/с9 %
    03:00Небольшая облачность+25°C91 %760 мм2.3 м/с16 %
    06:00Облачно с прояснениями+25°C90 %761 мм2.5 м/с17 %
    09:00Облачно с прояснениями+29°C74 %762 мм4.8 м/с22 %
    12:00Небольшая облачность+30°C62 %760 мм5.4 м/с3 %
    15:00Облачно с прояснениями+31°C64 %759 мм5.2 м/с2 %
    18:00Облачно с прояснениями+28°C70 %759 мм3.4 м/с2 %
    21:00Облачно с прояснениями+27°C73 %761 мм2.7 м/с2 %
  • 06марта
    Среда
    +23°
    +32°
    Ясно и безоблачно
    ВремяПогодаТемператураВлажностьДавлениеВетер, м/сВероятность осадков
    00:00Ясно и безоблачно+25°C81 %761 мм2.2 м/с3 %
    03:00Практически безоблачно+25°C84 %760 мм2.7 м/с4 %
    06:00Практически безоблачно+25°C83 %761 мм2.8 м/с2 %
    09:00Практически безоблачно+30°C66 %762 мм4.7 м/с2 %
    12:00Ясно и безоблачно+32°C64 %760 мм5.7 м/с2 %
    15:00Ясно и безоблачно+31°C66 %758 мм5.1 м/с2 %
    18:00Ясно и безоблачно+29°C75 %759 мм3.3 м/с2 %
    21:00Практически безоблачно+27°C80 %761 мм2.5 м/с2 %
  • 07марта
    Четверг
    +23°
    +32°
    Ясно и безоблачно
    ВремяПогодаТемператураВлажностьДавлениеВетер, м/сВероятность осадков
    00:00Небольшая облачность+25°C87 %760 мм2.5 м/с2 %
    03:00Практически безоблачно+24°C91 %759 мм2.9 м/с3 %
    06:00Ясно и безоблачно+24°C86 %761 мм3.1 м/с4 %
    09:00Практически безоблачно+30°C67 %762 мм4.2 м/с3 %
    12:00Ясно и безоблачно+31°C64 %760 мм5.4 м/с2 %
    15:00Ясно и безоблачно+31°C65 %759 мм5.1 м/с2 %
    18:00Ясно и безоблачно+28°C73 %759 мм3.2 м/с2 %
    21:00Практически безоблачно+28°C76 %761 мм2.8 м/с2 %
  • 08марта
    Пятница
    +23°
    +32°
    Ясно и безоблачно
    ВремяПогодаТемператураВлажностьДавлениеВетер, м/сВероятность осадков
    00:00Ясно и безоблачно+25°C85 %760 мм2.5 м/с2 %
    03:00Ясно и безоблачно+24°C80 %759 мм2.0 м/с2 %
    06:00Ясно и безоблачно+24°C76 %760 мм2.2 м/с2 %
    09:00Практически безоблачно+29°C69 %761 мм3.5 м/с4 %
    12:00Ясно и безоблачно+31°C62 %759 мм4.7 м/с2 %
    15:00Ясно и безоблачно+32°C64 %758 мм4.4 м/с2 %
    18:00Ясно и безоблачно+29°C74 %759 мм2.8 м/с2 %
    21:00Ясно и безоблачно+27°C78 %760 мм2.4 м/с2 %
Мы используем cookies
Соглашаюсь